Time;durP1;ratioP1;P1;durP2;ratioP2;P2;SDS_P1;SDS_P2;PMS_P1;PMS_P2;Temp;Humidity;BMP_temperature;BMP_pressure;BME280_temperature;BME280_humidity;BME280_pressure;Samples;Min_cycle;Max_cycle;Signal;HPM_P1;HPM_P2
2022/10/21 00:01:17;;;;;;;49.17;19.90;;;10.80;99.90;;;;;;4978623;28;20055;-86
2022/10/21 00:03:43;;;;;;;51.55;20.38;;;10.80;99.90;;;;;;4987450;28;20141;-86
2022/10/21 00:06:10;;;;;;;49.78;20.58;;;10.80;99.90;;;;;;4980875;28;20082;-86
2022/10/21 00:08:36;;;;;;;50.08;19.77;;;10.80;99.90;;;;;;4979083;28;20084;-86
2022/10/21 00:11:05;;;;;;;48.05;19.73;;;10.80;99.90;;;;;;4978030;28;20050;-86
2022/10/21 00:13:35;;;;;;;51.95;20.83;;;10.80;99.90;;;;;;4978917;28;20046;-86
2022/10/21 00:16:13;;;;;;;50.28;18.10;;;11.50;99.90;;;;;;4996712;28;20047;-86
2022/10/21 00:18:40;;;;;;;58.88;23.85;;;10.80;99.90;;;;;;4977844;28;20046;-87
2022/10/21 00:21:16;;;;;;;63.20;24.85;;;10.80;99.90;;;;;;4995927;28;20553;-86
2022/10/21 00:23:42;;;;;;;57.55;24.05;;;10.80;99.90;;;;;;4979061;28;20073;-87
2022/10/21 00:26:09;;;;;;;55.90;24.75;;;10.80;99.90;;;;;;4994927;28;20387;-86
2022/10/21 00:28:34;;;;;;;60.42;23.92;;;10.70;99.90;;;;;;4978429;28;20612;-86
2022/10/21 00:31:00;;;;;;;56.20;23.73;;;10.70;99.90;;;;;;4978956;28;20086;-86
2022/10/21 00:33:27;;;;;;;58.55;24.17;;;10.70;99.90;;;;;;4977637;28;20061;-86
2022/10/21 00:35:56;;;;;;;54.05;22.60;;;10.70;99.90;;;;;;4995756;28;20458;-86
2022/10/21 00:38:22;;;;;;;50.10;23.42;;;10.70;99.90;;;;;;4994428;28;20058;-86
2022/10/21 00:40:48;;;;;;;54.75;23.20;;;10.70;99.90;;;;;;4978455;28;20042;-87
2022/10/21 00:43:16;;;;;;;59.78;24.45;;;10.80;99.90;;;;;;4978470;28;20047;-86
2022/10/21 00:45:43;;;;;;;61.10;24.23;;;11.30;99.90;;;;;;4995058;28;20038;-86
2022/10/21 00:48:19;;;;;;;59.22;23.40;;;10.60;99.90;;;;;;4977914;28;20043;-86
2022/10/21 00:50:53;;;;;;;57.25;23.25;;;10.60;99.90;;;;;;4978003;28;20046;-86
2022/10/21 00:53:23;;;;;;;58.65;24.10;;;11.00;99.90;;;;;;4976884;28;20050;-86
2022/10/21 00:55:54;;;;;;;53.20;23.58;;;10.60;99.90;;;;;;4978426;28;20073;-87
2022/10/21 00:58:23;;;;;;;59.22;23.90;;;10.50;99.90;;;;;;4974500;28;20161;-87
2022/10/21 01:00:56;;;;;;;60.28;23.70;;;10.40;99.90;;;;;;4974524;28;20093;-87
2022/10/21 01:03:24;;;;;;;55.95;22.50;;;10.50;99.90;;;;;;4974708;28;20129;-86
2022/10/21 01:05:51;;;;;;;53.47;23.00;;;10.40;99.90;;;;;;4974750;28;20039;-86
2022/10/21 01:08:18;;;;;;;54.47;22.25;;;10.40;99.90;;;;;;4972262;28;20051;-86
2022/10/21 01:10:43;;;;;;;53.33;23.00;;;10.40;99.90;;;;;;4974365;28;20101;-86
2022/10/21 01:13:34;;;;;;;61.25;23.30;;;10.40;99.90;;;;;;4975366;28;20450;-86
2022/10/21 01:16:35;;;;;;;66.63;23.95;;;10.40;99.90;;;;;;4975773;28;20065;-86
2022/10/21 01:19:22;;;;;;;53.17;22.92;;;10.40;99.90;;;;;;4974617;28;20502;-87
2022/10/21 01:22:18;;;;;;;54.13;22.45;;;10.40;99.90;;;;;;4975078;28;20487;-87
2022/10/21 01:24:50;;;;;;;57.15;23.40;;;10.40;99.90;;;;;;4975589;28;20054;-86
2022/10/21 01:27:57;;;;;;;55.17;23.08;;;10.40;99.90;;;;;;5011479;23;20150;-86
2022/10/21 01:30:36;;;;;;;54.50;22.23;;;10.50;99.90;;;;;;4953688;29;20059;-86
2022/10/21 01:33:30;;;;;;;49.95;22.80;;;10.40;99.90;;;;;;4955176;29;20098;-86
2022/10/21 01:36:23;;;;;;;53.85;22.52;;;10.50;99.90;;;;;;4953973;29;20098;-86
2022/10/21 01:39:00;;;;;;;60.92;24.45;;;10.50;99.90;;;;;;4956425;29;20039;-86
2022/10/21 01:41:48;;;;;;;50.95;22.67;;;10.50;99.90;;;;;;4954981;28;20050;-86
2022/10/21 01:52:07;;;;;;;64.40;23.27;;;10.50;99.90;;;;;;4975256;28;20043;-86
2022/10/21 01:54:59;;;;;;;58.65;23.88;;;10.40;99.90;;;;;;4975133;28;20097;-86
2022/10/21 01:57:42;;;;;;;51.50;22.83;;;10.50;99.90;;;;;;4974271;28;20047;-86
2022/10/21 02:00:20;;;;;;;62.15;23.08;;;12.00;99.90;;;;;;4957755;28;20074;-86
2022/10/21 02:02:51;;;;;;;54.22;22.83;;;12.20;99.90;;;;;;4974271;28;20064;-87
2022/10/21 02:05:28;;;;;;;52.55;23.15;;;10.60;99.90;;;;;;4956840;28;20034;-87
2022/10/21 02:07:57;;;;;;;47.10;22.25;;;10.80;99.90;;;;;;4957342;28;20078;-87
2022/10/21 02:10:26;;;;;;;47.30;22.40;;;10.90;99.90;;;;;;4956425;28;20104;-86
2022/10/21 02:12:55;;;;;;;50.20;21.48;;;11.00;99.90;;;;;;4957593;28;20042;-87
2022/10/21 02:15:24;;;;;;;50.55;22.67;;;11.00;99.90;;;;;;4956932;28;20074;-86
2022/10/21 02:17:54;;;;;;;46.40;22.40;;;11.10;99.90;;;;;;4956591;28;20049;-87
2022/10/21 02:20:24;;;;;;;47.65;21.88;;;11.50;99.90;;;;;;4957088;28;20086;-87
2022/10/21 02:22:50;;;;;;;51.75;22.08;;;11.20;99.90;;;;;;4957284;28;20089;-87
2022/10/21 02:25:20;;;;;;;43.40;16.63;;;11.20;99.90;;;;;;4973230;28;20055;-86
2022/10/21 02:27:47;;;;;;;36.03;15.52;;;11.20;99.90;;;;;;4957049;28;20415;-87
2022/10/21 02:30:13;;;;;;;42.13;17.63;;;11.30;99.90;;;;;;4974275;28;20482;-87
2022/10/21 02:33:19;;;;;;;37.63;16.13;;;11.30;99.90;;;;;;4973636;28;20406;-87
2022/10/21 02:36:03;;;;;;;44.20;17.63;;;11.30;99.90;;;;;;4933735;29;20047;-87
2022/10/21 02:38:49;;;;;;;40.13;16.92;;;12.80;99.90;;;;;;4953794;28;20066;-87
2022/10/21 02:41:21;;;;;;;39.35;16.13;;;12.50;99.90;;;;;;4956677;28;20042;-87
2022/10/21 02:44:10;;;;;;;47.28;17.38;;;11.20;99.90;;;;;;4974092;28;20050;-87
2022/10/21 02:46:41;;;;;;;48.55;17.13;;;12.40;99.90;;;;;;4973324;28;20043;-87
2022/10/21 02:49:07;;;;;;;46.53;17.73;;;11.20;99.90;;;;;;4956481;28;20054;-87
2022/10/21 02:51:35;;;;;;;48.53;18.65;;;12.00;99.90;;;;;;4956457;28;20039;-87
2022/10/21 03:00:08;;;;;;;50.55;17.90;;;11.40;99.90;;;;;;5858293;23;20082;-87
2022/10/21 03:03:14;;;;;;;46.03;18.05;;;11.40;99.90;;;;;;4953632;29;20172;-87
2022/10/21 03:05:39;;;;;;;48.47;17.63;;;12.70;99.90;;;;;;4954522;28;20047;-88
2022/10/21 03:11:54;;;;;;;54.90;17.38;;;11.50;99.90;;;;;;4954377;28;20570;-88
2022/10/21 03:14:38;;;;;;;58.17;18.33;;;12.10;99.90;;;;;;4953741;29;20096;-88
2022/10/21 03:17:10;;;;;;;50.10;18.63;;;11.00;99.90;;;;;;4937282;29;20058;-87
2022/10/21 03:19:36;;;;;;;58.75;18.55;;;12.40;99.90;;;;;;4991960;23;20046;-88
2022/10/21 03:22:07;;;;;;;53.58;16.52;;;11.40;99.90;;;;;;4999003;23;20521;-88
2022/10/21 03:24:59;;;;;;;52.15;17.45;;;12.40;99.90;;;;;;4975678;28;20050;-88
2022/10/21 03:27:25;;;;;;;53.70;17.17;;;11.30;99.90;;;;;;4974112;28;20042;-88
2022/10/21 03:29:54;;;;;;;51.92;17.75;;;11.30;99.90;;;;;;4975351;28;20046;-88
2022/10/21 03:32:19;;;;;;;47.25;16.90;;;11.30;99.90;;;;;;4974388;28;20050;-87
2022/10/21 03:34:48;;;;;;;46.80;17.08;;;11.20;99.90;;;;;;4992328;28;20104;-88
2022/10/21 03:37:22;;;;;;;45.55;17.02;;;11.30;99.90;;;;;;4975320;28;20104;-88
2022/10/21 03:39:48;;;;;;;44.38;16.33;;;11.20;99.90;;;;;;4993236;28;20042;-87
2022/10/21 03:42:16;;;;;;;44.70;16.52;;;11.10;99.90;;;;;;4974501;28;20048;-88
2022/10/21 03:47:17;;;;;;;41.13;15.27;;;11.00;99.90;;;;;;5138900;23;20055;-88
2022/10/21 03:49:43;;;;;;;49.88;17.13;;;11.10;99.90;;;;;;4975110;28;20059;-88
2022/10/21 03:52:15;;;;;;;44.53;16.02;;;11.10;99.90;;;;;;4974997;28;20081;-88
2022/10/21 03:54:40;;;;;;;46.22;17.05;;;12.30;99.90;;;;;;4975585;28;20046;-87
2022/10/21 03:57:15;;;;;;;72.20;23.73;;;12.30;99.90;;;;;;4974976;28;20087;-87
2022/10/21 03:59:41;;;;;;;58.08;22.63;;;10.80;99.90;;;;;;4975577;28;20157;-88
2022/10/21 04:02:06;;;;;;;64.90;23.30;;;10.90;99.90;;;;;;4974577;28;20846;-87
2022/10/21 04:04:32;;;;;;;61.47;23.05;;;12.00;99.90;;;;;;4974430;28;20125;-88
2022/10/21 04:06:57;;;;;;;60.97;21.88;;;11.00;99.90;;;;;;4992349;28;20082;-88
2022/10/21 04:09:23;;;;;;;57.65;21.80;;;11.00;99.90;;;;;;4974129;28;20465;-88
2022/10/21 04:11:49;;;;;;;58.60;22.70;;;11.00;99.90;;;;;;4975078;28;20038;-88
2022/10/21 04:14:20;;;;;;;61.95;22.63;;;11.00;99.90;;;;;;4975182;28;20050;-88
2022/10/21 04:16:46;;;;;;;57.30;21.58;;;10.90;99.90;;;;;;4991492;28;20096;-88
2022/10/21 04:24:50;;;;;;;79.25;23.15;;;10.90;99.90;;;;;;4951067;29;20062;-88
2022/10/21 04:27:16;;;;;;;63.78;22.00;;;10.80;99.90;;;;;;4951777;28;20047;-88
2022/10/21 04:29:44;;;;;;;69.65;22.02;;;10.80;99.90;;;;;;5043197;23;20503;-88
2022/10/21 04:32:22;;;;;;;63.75;22.00;;;12.10;99.90;;;;;;4954376;28;20049;-88
2022/10/21 04:34:56;;;;;;;70.32;22.63;;;11.80;99.90;;;;;;4955444;28;20539;-88
2022/10/21 04:37:38;;;;;;;67.43;22.58;;;10.80;99.90;;;;;;4954083;28;20104;-88
2022/10/21 04:40:06;;;;;;;62.72;22.30;;;12.10;99.90;;;;;;4955610;28;20051;-88
2022/10/21 04:42:50;;;;;;;55.30;21.20;;;10.80;99.90;;;;;;4972970;28;20060;-88
2022/10/21 04:45:28;;;;;;;;;;;11.90;99.90;;;;;;4958216;28;20463;-87
2022/10/21 04:47:56;;;;;;;64.03;21.67;;;10.50;99.90;;;;;;4958786;28;19926;-88
2022/10/21 04:50:23;;;;;;;69.25;21.60;;;12.00;99.90;;;;;;4975954;28;20050;-88
2022/10/21 04:52:49;;;;;;;67.35;21.90;;;12.00;99.90;;;;;;4976006;28;20042;-87
2022/10/21 04:55:24;;;;;;;60.90;21.50;;;10.70;99.90;;;;;;4958301;28;20495;-87
2022/10/21 04:57:49;;;;;;;56.22;20.92;;;11.00;99.90;;;;;;4976318;28;20117;-88
2022/10/21 05:00:46;;;;;;;60.70;21.10;;;10.40;99.90;;;;;;4957609;28;20089;-87
2022/10/21 05:03:21;;;;;;;68.73;20.77;;;10.60;99.90;;;;;;4976166;28;20078;-88
2022/10/21 05:13:16;;;;;;;98.28;22.48;;;10.00;99.90;;;;;;4948772;28;20050;-88
2022/10/21 05:15:50;;;;;;;54.95;19.17;;;10.40;99.90;;;;;;4995447;28;20038;-88
2022/10/21 05:18:16;;;;;;;54.28;20.00;;;9.80;99.90;;;;;;4995420;28;20126;-88
2022/10/21 05:20:42;;;;;;;74.65;21.38;;;10.20;99.90;;;;;;4977104;28;20134;-87
2022/10/21 05:23:20;;;;;;;57.90;20.02;;;10.40;99.90;;;;;;4994610;28;20487;-88
2022/10/21 05:26:04;;;;;;;57.45;20.55;;;10.40;99.90;;;;;;4995335;28;20046;-88
2022/10/21 05:28:48;;;;;;;61.95;20.63;;;9.80;99.90;;;;;;5002842;28;20120;-88
2022/10/21 05:31:17;;;;;;;56.22;20.08;;;10.30;99.90;;;;;;4995531;28;20053;-88
2022/10/21 05:37:36;;;;;;;58.90;17.77;;;10.50;99.90;;;;;;4975303;28;20118;-87
2022/10/21 05:40:15;;;;;;;58.13;17.88;;;9.80;99.90;;;;;;4974134;28;20145;-88
2022/10/21 05:42:41;;;;;;;54.47;17.67;;;10.30;99.90;;;;;;4957692;28;20078;-88
2022/10/21 05:45:25;;;;;;;41.53;13.10;;;10.20;99.90;;;;;;4975112;28;20077;-87
2022/10/21 05:47:51;;;;;;;38.70;13.30;;;9.90;99.90;;;;;;4986731;23;20108;-87
2022/10/21 05:50:20;;;;;;;36.90;14.00;;;10.20;99.90;;;;;;4976977;28;20445;-92
2022/10/21 05:52:45;;;;;;;36.30;14.38;;;11.70;99.90;;;;;;4956344;28;20061;-85
2022/10/21 05:55:11;;;;;;;37.88;13.10;;;10.20;99.90;;;;;;4948015;28;20130;-87
2022/10/21 05:57:37;;;;;;;55.50;16.02;;;10.10;99.90;;;;;;4962875;23;20093;-84
2022/10/21 06:00:04;;;;;;;48.42;15.05;;;10.10;99.90;;;;;;4938217;29;20050;-82
2022/10/21 06:02:30;;;;;;;57.88;16.40;;;10.10;99.90;;;;;;5192121;23;20046;-84
2022/10/21 06:07:45;;;;;;;53.08;17.05;;;10.10;99.90;;;;;;4957376;28;20114;-84
2022/10/21 06:10:15;;;;;;;49.80;16.17;;;9.60;99.90;;;;;;4973988;28;20097;-84
2022/10/21 06:18:51;;;;;;;46.20;15.68;;;10.00;99.90;;;;;;4973043;28;20061;-85
2022/10/21 06:21:17;;;;;;;54.35;16.83;;;9.80;99.90;;;;;;4974079;28;20043;-87
2022/10/21 06:23:42;;;;;;;50.72;17.17;;;10.10;99.90;;;;;;4956493;28;20078;-87
2022/10/21 06:26:12;;;;;;;48.22;17.20;;;11.20;99.90;;;;;;4968786;28;20121;-87
2022/10/21 06:28:43;;;;;;;37.97;13.90;;;11.20;99.90;;;;;;4964707;28;20049;-87
2022/10/21 06:31:12;;;;;;;47.40;15.55;;;10.20;99.90;;;;;;4947203;28;20035;-88
2022/10/21 06:33:38;;;;;;;43.70;16.35;;;10.80;99.90;;;;;;4947174;28;20035;-87
2022/10/21 06:36:04;;;;;;;44.08;15.45;;;11.30;99.90;;;;;;5014057;23;20094;-88
2022/10/21 06:38:31;;;;;;;41.38;15.30;;;10.40;99.90;;;;;;4933543;29;20062;-87
2022/10/21 06:41:17;;;;;;;54.25;17.13;;;10.10;99.90;;;;;;4989961;23;20486;-87
2022/10/21 06:43:52;;;;;;;41.30;15.77;;;10.40;99.90;;;;;;4994743;28;20046;-88
2022/10/21 06:46:27;;;;;;;47.63;16.77;;;10.40;99.90;;;;;;4976118;28;20105;-88
2022/10/21 06:49:05;;;;;;;39.53;15.00;;;10.30;99.90;;;;;;4994248;28;20104;-88
2022/10/21 06:51:30;;;;;;;46.03;16.80;;;9.60;99.90;;;;;;4975625;28;20430;-87
2022/10/21 06:53:59;;;;;;;49.10;16.55;;;12.00;99.90;;;;;;4993477;28;20474;-89
2022/10/21 06:56:44;;;;;;;46.10;16.67;;;11.40;99.90;;;;;;5050710;23;20101;-88
2022/10/21 06:59:10;;;;;;;42.38;16.33;;;10.50;99.90;;;;;;4992475;28;20049;-88
2022/10/21 07:01:41;;;;;;;42.13;16.63;;;10.70;99.90;;;;;;4993905;28;20038;-87
2022/10/21 07:04:22;;;;;;;39.78;16.05;;;10.50;99.90;;;;;;4976163;28;20387;-87
2022/10/21 07:07:06;;;;;;;50.70;16.88;;;11.30;99.90;;;;;;4992449;28;20042;-88
2022/10/21 07:09:41;;;;;;;47.53;17.10;;;10.20;99.90;;;;;;4993593;28;20192;-88
2022/10/21 07:12:07;;;;;;;48.95;17.17;;;9.50;99.90;;;;;;4975571;28;20042;-88
2022/10/21 07:14:45;;;;;;;55.17;18.92;;;10.60;99.90;;;;;;4996243;28;20049;-89
2022/10/21 07:17:20;;;;;;;50.95;18.77;;;12.10;99.90;;;;;;4991012;28;20097;-88
2022/10/21 07:20:02;;;;;;;45.88;18.25;;;12.00;99.90;;;;;;4977023;28;20042;-88
2022/10/21 07:22:40;;;;;;;59.63;19.73;;;11.10;99.90;;;;;;4975971;28;20049;-89
2022/10/21 07:25:12;;;;;;;55.25;19.33;;;11.80;99.90;;;;;;4993298;28;20046;-88
2022/10/21 07:27:47;;;;;;;56.95;18.55;;;12.70;99.90;;;;;;4974970;28;20050;-88
2022/10/21 07:30:20;;;;;;;52.08;20.00;;;12.80;99.90;;;;;;4992699;28;20035;-88
2022/10/21 07:32:49;;;;;;;49.03;18.87;;;12.70;99.90;;;;;;4993535;28;20042;-89
2022/10/21 07:35:24;;;;;;;52.22;19.25;;;11.20;99.90;;;;;;4974533;28;20046;-88
2022/10/21 07:37:49;;;;;;;48.80;19.58;;;11.90;99.90;;;;;;4993196;28;20453;-89
2022/10/21 07:40:15;;;;;;;51.38;20.67;;;11.70;99.90;;;;;;4974832;28;20131;-89
2022/10/21 07:43:01;;;;;;;49.85;19.75;;;11.80;99.90;;;;;;4992939;28;20125;-88
2022/10/21 07:45:43;;;;;;;60.38;20.58;;;11.90;99.90;;;;;;4975842;28;20057;-88
2022/10/21 07:48:18;;;;;;;56.17;19.90;;;12.00;99.90;;;;;;4974937;28;20038;-88
2022/10/21 07:54:31;;;;;;;49.95;19.85;;;12.20;99.90;;;;;;4993357;28;20038;-89
2022/10/21 07:57:14;;;;;;;52.78;20.25;;;12.10;99.90;;;;;;4992354;28;20051;-89
2022/10/21 07:59:39;;;;;;;49.53;19.13;;;12.30;99.90;;;;;;4975833;28;20058;-88
2022/10/21 08:02:19;;;;;;;52.05;19.75;;;13.20;99.90;;;;;;4998831;23;20402;-88
2022/10/21 08:07:18;;;;;;;48.15;19.58;;;12.40;99.90;;;;;;5391306;23;20046;-89
2022/10/21 08:10:03;;;;;;;47.05;18.83;;;13.40;99.90;;;;;;4991534;28;20054;-89
2022/10/21 08:12:28;;;;;;;45.00;18.48;;;12.60;99.90;;;;;;4981996;28;20039;-88
2022/10/21 08:15:15;;;;;;;44.47;18.23;;;12.70;99.90;;;;;;4981786;28;20514;-89
2022/10/21 08:17:41;;;;;;;44.45;18.67;;;13.30;99.90;;;;;;4982408;28;20058;-87
2022/10/21 08:20:16;;;;;;;42.53;18.17;;;14.20;99.90;;;;;;4973042;28;20054;-87
2022/10/21 08:40:28;;;;;;;37.80;17.42;;;13.10;99.90;;;;;;4935571;29;20119;-86
2022/10/21 08:47:54;;;;;;;37.92;16.85;;;13.30;99.90;;;;;;4937391;29;20050;-87
2022/10/21 08:50:39;;;;;;;35.45;16.95;;;13.20;99.90;;;;;;4932370;29;20059;-87
2022/10/21 08:53:36;;;;;;;34.53;15.73;;;14.10;99.90;;;;;;5134022;23;20097;-87
2022/10/21 08:56:17;;;;;;;31.63;15.95;;;13.30;99.90;;;;;;4978018;28;20066;-86
2022/10/21 08:58:53;;;;;;;35.30;15.70;;;13.30;99.90;;;;;;4994954;28;20030;-87
2022/10/21 09:01:40;;;;;;;31.23;15.32;;;12.70;99.90;;;;;;4994687;28;20502;-88
2022/10/21 09:04:25;;;;;;;31.80;14.82;;;13.30;99.90;;;;;;4979247;28;20050;-86
2022/10/21 09:13:21;;;;;;;32.33;14.95;;;13.60;99.90;;;;;;4973995;28;20054;-85
2022/10/21 09:16:09;;;;;;;32.00;15.63;;;13.70;99.90;;;;;;4977567;28;20457;-85
2022/10/21 09:19:13;;;;;;;29.60;14.35;;;13.90;99.90;;;;;;4977091;28;20042;-85
2022/10/21 09:21:53;;;;;;;28.05;15.05;;;13.90;99.90;;;;;;4994828;28;20050;-85
2022/10/21 09:24:28;;;;;;;28.98;14.25;;;14.00;99.90;;;;;;4994895;28;20114;-85
2022/10/21 09:26:55;;;;;;;30.17;14.15;;;14.10;99.90;;;;;;4976818;28;20114;-85
2022/10/21 09:29:35;;;;;;;25.98;13.35;;;14.20;99.90;;;;;;4981203;23;20089;-85
2022/10/21 09:32:12;;;;;;;23.27;13.70;;;14.40;99.90;;;;;;4962461;28;20050;-85
2022/10/21 09:34:45;;;;;;;26.88;13.13;;;14.40;99.90;;;;;;4962220;28;20039;-85
2022/10/21 09:37:24;;;;;;;20.98;11.25;;;14.50;99.90;;;;;;4957733;28;20065;-83
2022/10/21 09:40:11;;;;;;;23.17;12.02;;;14.50;99.90;;;;;;4974370;28;20429;-83
2022/10/21 09:42:37;;;;;;;22.30;12.40;;;14.60;99.90;;;;;;4957492;28;20050;-83
2022/10/21 09:45:03;;;;;;;21.67;11.35;;;14.60;99.90;;;;;;4975071;28;20390;-88
2022/10/21 09:47:29;;;;;;;18.67;10.98;;;14.80;99.90;;;;;;4981583;23;20058;-85
2022/10/21 09:49:59;;;;;;;21.33;11.20;;;14.70;99.90;;;;;;4958025;28;20047;-86
2022/10/21 09:52:30;;;;;;;22.30;10.88;;;15.40;99.90;;;;;;4958016;28;20125;-86
2022/10/21 09:54:57;;;;;;;20.90;10.40;;;14.80;99.90;;;;;;4957325;28;20050;-86
2022/10/21 09:57:43;;;;;;;18.77;10.05;;;14.90;99.90;;;;;;4958087;28;20050;-86
2022/10/21 10:00:09;;;;;;;20.65;10.05;;;14.80;99.90;;;;;;4957792;28;20102;-87
2022/10/21 10:02:57;;;;;;;20.40;11.05;;;14.90;99.90;;;;;;4970739;28;20454;-87
2022/10/21 10:05:46;;;;;;;20.38;12.00;;;15.90;99.90;;;;;;4956984;28;20518;-86
2022/10/21 10:08:37;;;;;;;22.08;11.07;;;14.90;99.90;;;;;;4956419;28;20046;-85
2022/10/21 10:14:06;;;;;;;19.40;10.75;;;15.00;99.90;;;;;;5006193;23;20046;-90
2022/10/21 10:16:32;;;;;;;18.75;10.32;;;15.10;99.90;;;;;;4956429;28;20054;-86
2022/10/21 10:23:06;;;;;;;19.73;10.15;;;15.10;99.90;;;;;;5198470;23;20461;-86
2022/10/21 10:25:34;;;;;;;19.17;9.90;;;15.20;99.90;;;;;;4976703;28;20129;-86
2022/10/21 10:28:09;;;;;;;19.38;10.30;;;15.30;99.90;;;;;;4976554;28;20096;-85
2022/10/21 10:33:27;;;;;;;18.77;10.13;;;15.40;99.90;;;;;;5016646;23;20058;-85
2022/10/21 10:35:54;;;;;;;19.27;11.07;;;15.40;99.90;;;;;;4976254;28;20545;-84
2022/10/21 10:38:25;;;;;;;24.55;11.38;;;15.40;99.90;;;;;;4992925;28;20117;-84
2022/10/21 10:40:51;;;;;;;20.25;11.38;;;16.40;99.90;;;;;;4976242;28;20136;-83
2022/10/21 10:43:27;;;;;;;19.30;11.60;;;15.40;99.90;;;;;;4966141;28;20093;-84
2022/10/21 10:46:00;;;;;;;19.75;11.27;;;15.40;99.90;;;;;;4973516;28;20043;-86
2022/10/21 10:48:40;;;;;;;23.52;11.25;;;15.90;99.90;;;;;;4973493;28;20038;-84
2022/10/21 10:51:22;;;;;;;17.67;10.48;;;15.50;99.90;;;;;;4973245;28;20038;-85
2022/10/21 10:54:00;;;;;;;18.90;10.85;;;15.50;99.90;;;;;;4971901;28;20046;-85
2022/10/21 10:56:31;;;;;;;19.08;10.65;;;15.60;99.90;;;;;;5072182;23;20053;-87
2022/10/21 10:59:41;;;;;;;17.52;10.23;;;15.60;99.90;;;;;;4934244;29;20035;-86
2022/10/21 11:02:07;;;;;;;17.75;10.35;;;15.60;99.90;;;;;;4860369;29;20052;-86
2022/10/21 11:04:51;;;;;;;20.08;10.05;;;15.70;99.90;;;;;;5227641;23;20039;-86
2022/10/21 11:07:24;;;;;;;19.42;10.80;;;15.60;99.90;;;;;;4982168;28;20105;-84
2022/10/21 11:09:55;;;;;;;18.15;10.25;;;15.70;99.90;;;;;;4950770;28;20053;-83
2022/10/21 11:12:25;;;;;;;18.98;9.98;;;15.80;99.90;;;;;;4964483;28;20133;-83
2022/10/21 11:14:53;;;;;;;22.40;10.32;;;15.80;99.90;;;;;;4982015;28;20525;-84
2022/10/21 11:17:21;;;;;;;17.90;9.32;;;16.80;99.90;;;;;;4975289;28;20078;-82
2022/10/21 11:20:00;;;;;;;17.50;9.25;;;16.90;99.90;;;;;;4992974;28;20077;-82
2022/10/21 11:22:32;;;;;;;18.20;9.00;;;15.90;99.90;;;;;;4993007;28;20057;-82
2022/10/21 11:25:24;;;;;;;16.60;8.73;;;16.00;99.90;;;;;;4993265;28;20051;-81
2022/10/21 11:28:16;;;;;;;15.80;8.80;;;16.10;99.90;;;;;;4975520;28;20133;-83
2022/10/21 11:31:07;;;;;;;16.90;9.07;;;16.10;99.90;;;;;;4993188;28;20047;-83
2022/10/21 11:34:01;;;;;;;18.33;9.43;;;16.10;99.90;;;;;;4992543;28;20402;-83
2022/10/21 11:36:35;;;;;;;;;;;16.10;99.90;;;;;;4988073;28;20065;-83
2022/10/21 11:39:29;;;;;;;15.48;8.55;;;16.20;99.90;;;;;;4975707;28;19918;-83
2022/10/21 11:42:15;;;;;;;;;;;16.20;99.90;;;;;;4975262;28;20410;-83
2022/10/21 11:44:57;;;;;;;16.52;9.02;;;16.20;99.90;;;;;;4993018;28;19929;-86
2022/10/21 11:48:25;;;;;;;17.70;9.52;;;16.20;99.90;;;;;;4992376;28;20121;-86
2022/10/21 11:51:00;;;;;;;15.68;8.10;;;16.20;99.90;;;;;;4930441;28;20061;-84
2022/10/21 11:54:21;;;;;;;16.98;9.18;;;16.30;99.90;;;;;;4978081;28;20512;-83
2022/10/21 11:57:20;;;;;;;16.55;8.73;;;16.30;99.90;;;;;;4957895;28;20050;-85
2022/10/21 11:59:51;;;;;;;17.10;8.50;;;16.30;99.90;;;;;;4971934;28;20150;-85
2022/10/21 12:02:23;;;;;;;20.95;10.13;;;16.50;99.90;;;;;;4984576;28;20485;-85
2022/10/21 12:05:06;;;;;;;19.98;9.57;;;17.00;99.90;;;;;;4973248;28;20062;-85
2022/10/21 12:07:49;;;;;;;16.83;9.47;;;16.40;99.90;;;;;;4977550;28;20041;-85
2022/10/21 12:10:40;;;;;;;18.85;9.48;;;16.40;99.90;;;;;;4975229;28;20294;-86
2022/10/21 12:13:46;;;;;;;17.13;9.23;;;16.40;99.90;;;;;;4994866;28;20073;-84
2022/10/21 12:16:19;;;;;;;16.20;8.65;;;16.40;99.90;;;;;;4995151;28;20457;-85
2022/10/21 12:19:16;;;;;;;14.70;8.10;;;17.10;99.90;;;;;;4978964;28;20054;-84
2022/10/21 12:21:44;;;;;;;16.98;7.63;;;16.30;99.90;;;;;;4995766;28;20105;-85
2022/10/21 12:24:18;;;;;;;13.82;7.38;;;16.20;99.90;;;;;;4978556;28;20047;-85
2022/10/21 12:26:52;;;;;;;15.82;6.40;;;16.40;99.90;;;;;;4979220;28;20082;-85
2022/10/21 12:29:47;;;;;;;16.02;6.53;;;17.50;99.90;;;;;;4977849;28;20105;-85
2022/10/21 12:32:24;;;;;;;;;;;16.60;99.90;;;;;;4978849;28;20046;-87
2022/10/21 12:34:52;;;;;;;12.90;5.78;;;16.60;99.90;;;;;;5003790;23;19929;-78
2022/10/21 12:37:46;;;;;;;19.10;6.20;;;16.70;99.90;;;;;;4993315;28;20494;-84
2022/10/21 12:40:24;;;;;;;13.50;6.43;;;16.70;99.90;;;;;;4986296;28;20490;-85
2022/10/21 12:42:57;;;;;;;13.63;6.13;;;16.80;99.90;;;;;;4968386;28;20120;-84
2022/10/21 12:45:29;;;;;;;13.20;6.05;;;16.90;99.90;;;;;;4972491;23;20121;-84
2022/10/21 12:48:29;;;;;;;15.55;6.53;;;16.90;99.90;;;;;;4966055;28;20046;-85
2022/10/21 12:51:07;;;;;;;14.70;6.57;;;16.70;99.90;;;;;;4964791;28;20085;-84
2022/10/21 12:53:41;;;;;;;19.88;6.90;;;17.30;99.90;;;;;;4964228;28;20470;-84
2022/10/21 12:56:08;;;;;;;14.30;6.32;;;16.80;99.90;;;;;;4981609;23;20043;-84
2022/10/21 12:58:43;;;;;;;15.75;6.03;;;16.70;99.90;;;;;;4967946;28;20446;-85
2022/10/21 13:01:35;;;;;;;15.50;6.13;;;17.00;99.90;;;;;;4974764;28;20094;-84
2022/10/21 13:04:01;;;;;;;14.63;5.90;;;16.80;99.90;;;;;;4973077;28;20055;-86
2022/10/21 13:06:47;;;;;;;14.15;6.15;;;16.50;99.90;;;;;;4974898;28;20043;-85
2022/10/21 13:09:34;;;;;;;13.40;5.72;;;17.10;99.90;;;;;;4976328;28;20042;-86
2022/10/21 13:12:13;;;;;;;11.63;5.28;;;16.70;99.90;;;;;;4974500;28;20058;-85
2022/10/21 13:14:44;;;;;;;14.57;5.78;;;16.70;99.90;;;;;;4969118;28;20050;-85
2022/10/21 13:17:19;;;;;;;15.95;6.10;;;16.80;99.90;;;;;;4961721;28;20050;-86
2022/10/21 13:20:05;;;;;;;15.25;6.43;;;16.70;99.90;;;;;;4965210;28;20130;-83
2022/10/21 13:22:39;;;;;;;13.52;5.85;;;16.90;99.90;;;;;;4926612;28;20058;-83
2022/10/21 13:25:24;;;;;;;15.23;6.00;;;16.80;99.90;;;;;;4966359;28;20055;-83
2022/10/21 13:28:12;;;;;;;12.98;5.82;;;16.70;99.90;;;;;;4960921;28;20047;-86
2022/10/21 13:35:19;;;;;;;14.00;5.40;;;16.50;99.90;;;;;;4956142;29;20190;-84
2022/10/21 13:38:30;;;;;;;14.20;5.72;;;16.70;99.90;;;;;;4954714;29;20059;-83
2022/10/21 13:41:21;;;;;;;13.38;5.40;;;16.80;99.90;;;;;;4954188;28;20142;-84
2022/10/21 13:47:29;;;;;;;12.70;5.53;;;16.70;99.90;;;;;;5021117;23;20495;-83
2022/10/21 13:50:10;;;;;;;13.77;5.80;;;16.60;99.90;;;;;;4977447;28;20112;-83
2022/10/21 13:52:36;;;;;;;13.80;6.05;;;16.70;99.90;;;;;;4977248;28;20061;-83
2022/10/21 13:55:04;;;;;;;12.88;5.00;;;16.70;99.90;;;;;;4976110;28;20490;-83
2022/10/21 13:57:34;;;;;;;12.68;4.90;;;16.70;99.90;;;;;;4977102;28;20418;-84
2022/10/21 14:00:08;;;;;;;12.20;4.75;;;16.80;99.90;;;;;;4976949;28;20069;-84
2022/10/21 14:02:34;;;;;;;10.48;4.40;;;16.70;99.90;;;;;;4977469;28;20137;-84
2022/10/21 14:05:02;;;;;;;10.80;4.65;;;17.00;99.90;;;;;;4977282;28;20207;-84
2022/10/21 14:07:28;;;;;;;10.73;4.45;;;16.70;99.90;;;;;;4976135;28;20049;-84
2022/10/21 14:09:57;;;;;;;11.57;4.55;;;17.20;99.90;;;;;;4976939;28;20051;-84
2022/10/21 14:12:30;;;;;;;10.40;4.20;;;16.70;99.90;;;;;;4977102;28;20106;-83
2022/10/21 14:15:14;;;;;;;13.50;4.30;;;16.70;99.90;;;;;;4965619;28;20046;-84
2022/10/21 14:17:42;;;;;;;;;;;16.80;99.90;;;;;;4987079;28;20046;-84
2022/10/21 14:20:15;;;;;;;9.25;3.30;;;17.10;99.90;;;;;;4993739;28;19975;-84
2022/10/21 14:22:45;;;;;;;9.70;3.60;;;16.70;99.90;;;;;;4976125;28;20061;-84
2022/10/21 14:25:14;;;;;;;10.73;3.95;;;17.10;99.90;;;;;;4976795;28;20285;-84
2022/10/21 14:27:45;;;;;;;9.65;3.53;;;16.80;99.90;;;;;;4976478;28;20111;-81
2022/10/21 14:30:17;;;;;;;9.38;3.67;;;17.30;99.90;;;;;;4974693;28;20104;-84
2022/10/21 14:32:43;;;;;;;10.77;4.03;;;16.90;99.90;;;;;;4993727;28;20390;-85
2022/10/21 14:35:18;;;;;;;9.80;3.97;;;16.60;99.90;;;;;;4971090;28;20049;-84
2022/10/21 14:37:49;;;;;;;12.50;4.57;;;16.50;99.90;;;;;;4973850;28;20050;-85
2022/10/21 14:40:38;;;;;;;11.48;3.88;;;16.80;99.90;;;;;;4978244;28;20414;-85
2022/10/21 14:43:19;;;;;;;10.77;4.30;;;16.40;99.90;;;;;;4981493;28;20053;-85
2022/10/21 14:45:50;;;;;;;11.80;4.28;;;16.80;99.90;;;;;;5034508;23;20347;-85
2022/10/21 14:48:38;;;;;;;10.85;4.38;;;16.30;99.90;;;;;;4955252;28;20440;-86
2022/10/21 14:51:17;;;;;;;10.00;3.95;;;16.30;99.90;;;;;;4935713;29;20122;-84